Time;durP1;ratioP1;P1;durP2;ratioP2;P2;SDS_P1;SDS_P2;PMS_P1;PMS_P2;Temp;Humidity;BMP_temperature;BMP_pressure;BME280_temperature;BME280_humidity;BME280_pressure;Samples;Min_cycle;Max_cycle;Signal;HPM_P1;HPM_P2
2022/12/20 00:01:09;;;;;;;84.00;35.13;;;;;;;;;;6224641;23;20011;-94
2022/12/20 00:03:36;;;;;;;83.60;35.03;;;;;;;;;;6202205;23;20039;-94
2022/12/20 00:06:02;;;;;;;93.20;39.05;;;;;;;;;;6196506;23;20009;-95
2022/12/20 00:08:29;;;;;;;83.28;35.28;;;;;;;;;;6222081;23;20012;-94
2022/12/20 00:10:56;;;;;;;95.43;37.72;;;;;;;;;;6199277;23;20019;-94
2022/12/20 00:13:22;;;;;;;92.68;38.30;;;;;;;;;;6194879;23;20063;-94
2022/12/20 00:15:48;;;;;;;83.57;35.97;;;;;;;;;;6195374;23;20008;-94
2022/12/20 00:18:14;;;;;;;89.18;37.63;;;;;;;;;;6195817;23;20005;-94
2022/12/20 00:20:40;;;;;;;91.82;38.78;;;;;;;;;;6194490;23;20008;-94
2022/12/20 00:23:07;;;;;;;89.90;37.03;;;;;;;;;;6195740;23;20064;-94
2022/12/20 00:25:40;;;;;;;91.25;37.53;;;;;;;;;;6202001;23;20027;-93
2022/12/20 00:28:06;;;;;;;86.35;34.55;;;;;;;;;;6193558;23;20448;-92
2022/12/20 00:30:48;;;;;;;;;;;;;;;;;;;;;
2022/12/20 00:36:19;;;;;;;88.43;34.70;;;;;;;;;;6227358;22;20102;-95
2022/12/20 00:46:57;;;;;;;81.68;33.63;;;;;;;;;;6222904;23;20027;-94
2022/12/20 00:49:23;;;;;;;91.80;38.40;;;;;;;;;;6192717;23;20004;-94
2022/12/20 00:51:50;;;;;;;92.90;37.47;;;;;;;;;;6193033;23;20076;-92
2022/12/20 00:54:16;;;;;;;87.65;37.45;;;;;;;;;;6192264;23;20458;-94
2022/12/20 00:56:42;;;;;;;91.35;38.55;;;;;;;;;;6190435;23;20000;-93
2022/12/20 00:59:08;;;;;;;96.00;39.20;;;;;;;;;;6197601;23;20004;-95
2022/12/20 01:01:34;;;;;;;110.63;41.92;;;;;;;;;;6199409;23;20431;-94
2022/12/20 01:04:02;;;;;;;99.20;41.30;;;;;;;;;;6196872;23;20422;-93
2022/12/20 01:06:29;;;;;;;102.35;41.00;;;;;;;;;;6194714;23;20071;-94
2022/12/20 01:08:56;;;;;;;92.10;38.45;;;;;;;;;;6193468;23;20001;-93
2022/12/20 01:11:23;;;;;;;95.65;39.30;;;;;;;;;;6194707;23;20063;-93
2022/12/20 01:13:52;;;;;;;80.05;35.50;;;;;;;;;;6193684;23;20035;-92
2022/12/20 01:16:20;;;;;;;90.15;38.05;;;;;;;;;;6202366;22;20018;-91
2022/12/20 01:18:47;;;;;;;89.38;35.50;;;;;;;;;;6215286;22;19997;-91
2022/12/20 01:21:14;;;;;;;94.75;39.58;;;;;;;;;;6201536;23;20060;-93
2022/12/20 01:23:40;;;;;;;89.93;38.35;;;;;;;;;;6207578;22;20031;-92
2022/12/20 01:26:33;;;;;;;89.88;39.25;;;;;;;;;;6214948;22;20015;-93
2022/12/20 01:29:01;;;;;;;92.38;36.28;;;;;;;;;;6189951;23;20001;-94
2022/12/20 01:31:34;;;;;;;91.07;37.97;;;;;;;;;;6187812;23;20020;-93
2022/12/20 01:34:00;;;;;;;;;;;;;;;;;;6192978;23;20446;-94
2022/12/20 01:36:31;;;;;;;86.85;35.35;;;;;;;;;;6200231;23;20365;-93
2022/12/20 01:39:01;;;;;;;80.75;34.47;;;;;;;;;;6206103;23;20032;-94
2022/12/20 01:41:29;;;;;;;86.90;34.58;;;;;;;;;;6198801;23;20004;-93
2022/12/20 01:43:57;;;;;;;81.60;34.85;;;;;;;;;;6194788;23;20008;-93
2022/12/20 01:46:24;;;;;;;96.15;37.58;;;;;;;;;;6193992;23;20024;-94
2022/12/20 01:48:59;;;;;;;83.22;35.50;;;;;;;;;;6219802;23;20012;-94
2022/12/20 01:51:30;;;;;;;82.65;35.65;;;;;;;;;;6226919;23;20072;-95
2022/12/20 01:54:04;;;;;;;90.28;38.15;;;;;;;;;;6228142;23;20008;-95
2022/12/20 01:56:30;;;;;;;91.13;36.40;;;;;;;;;;6197282;23;20000;-93
2022/12/20 01:58:57;;;;;;;89.80;38.65;;;;;;;;;;6172395;23;20008;-94
2022/12/20 02:01:24;;;;;;;92.40;36.95;;;;;;;;;;6199996;23;20011;-95
2022/12/20 02:03:51;;;;;;;96.97;39.65;;;;;;;;;;6197772;23;20004;-94
2022/12/20 02:06:18;;;;;;;90.57;38.72;;;;;;;;;;6200736;23;20012;-92
2022/12/20 02:08:46;;;;;;;95.97;38.38;;;;;;;;;;6198436;23;20004;-94
2022/12/20 02:11:21;;;;;;;95.75;39.22;;;;;;;;;;6199891;23;20012;-93
2022/12/20 02:13:58;;;;;;;92.22;37.45;;;;;;;;;;6224842;23;20017;-93
2022/12/20 02:16:27;;;;;;;108.38;42.53;;;;;;;;;;6196156;23;20001;-93
2022/12/20 02:19:06;;;;;;;90.43;38.35;;;;;;;;;;6198527;23;20004;-94
2022/12/20 02:21:39;;;;;;;102.45;39.58;;;;;;;;;;6197942;23;20004;-94
2022/12/20 02:24:24;;;;;;;87.07;35.07;;;;;;;;;;6199158;23;20335;-94
2022/12/20 02:26:56;;;;;;;88.28;36.58;;;;;;;;;;6199585;23;20228;-95
2022/12/20 02:29:26;;;;;;;89.80;37.05;;;;;;;;;;6204794;23;20009;-94
2022/12/20 02:31:52;;;;;;;104.53;38.83;;;;;;;;;;6196059;23;20001;-93
2022/12/20 02:34:20;;;;;;;96.10;39.13;;;;;;;;;;6196651;23;20013;-94
2022/12/20 02:36:46;;;;;;;102.03;39.85;;;;;;;;;;6192313;23;20012;-93
2022/12/20 02:39:16;;;;;;;91.47;37.92;;;;;;;;;;6193249;23;20075;-91
2022/12/20 02:41:43;;;;;;;85.43;37.22;;;;;;;;;;6191332;23;20027;-93
2022/12/20 02:47:00;;;;;;;89.78;37.20;;;;;;;;;;6224486;23;20031;-93
2022/12/20 02:49:31;;;;;;;96.15;38.38;;;;;;;;;;6172165;23;20084;-94
2022/12/20 02:51:59;;;;;;;85.15;36.20;;;;;;;;;;6195237;23;20060;-94
2022/12/20 02:54:26;;;;;;;95.18;38.10;;;;;;;;;;6192919;23;20376;-95
2022/12/20 02:57:15;;;;;;;96.93;38.33;;;;;;;;;;6194559;23;19996;-94
2022/12/20 02:59:57;;;;;;;98.78;39.42;;;;;;;;;;6195577;23;20073;-94
2022/12/20 03:02:27;;;;;;;104.28;39.30;;;;;;;;;;6195053;23;20001;-95
2022/12/20 03:04:57;;;;;;;100.95;39.42;;;;;;;;;;6202173;23;20008;-93
2022/12/20 03:07:26;;;;;;;112.97;42.65;;;;;;;;;;6211981;22;20015;-95
2022/12/20 03:12:29;;;;;;;102.43;40.25;;;;;;;;;;6253761;23;20468;-95
2022/12/20 03:25:46;;;;;;;120.90;44.28;;;;;;;;;;6220778;23;20024;-93
2022/12/20 03:28:13;;;;;;;118.63;42.70;;;;;;;;;;6202367;22;20072;-91
2022/12/20 03:30:39;;;;;;;95.93;38.45;;;;;;;;;;6195948;23;20330;-92
2022/12/20 03:33:06;;;;;;;104.25;40.35;;;;;;;;;;6195105;23;20143;-92
2022/12/20 03:35:32;;;;;;;125.75;43.60;;;;;;;;;;6195594;23;20004;-92
2022/12/20 03:37:58;;;;;;;134.40;44.83;;;;;;;;;;6195130;23;20008;-93
2022/12/20 03:40:25;;;;;;;103.78;40.05;;;;;;;;;;6196564;23;20008;-93
2022/12/20 03:42:51;;;;;;;113.75;42.13;;;;;;;;;;6194902;23;20087;-95
2022/12/20 03:45:17;;;;;;;130.82;46.03;;;;;;;;;;6196898;23;20078;-94
2022/12/20 03:47:43;;;;;;;108.95;41.53;;;;;;;;;;6197718;23;20083;-94
2022/12/20 03:50:10;;;;;;;111.85;41.00;;;;;;;;;;6197884;23;20315;-95
2022/12/20 03:52:36;;;;;;;125.68;44.35;;;;;;;;;;6198295;23;20005;-96
2022/12/20 03:55:02;;;;;;;114.50;43.60;;;;;;;;;;6198834;23;20315;-95
2022/12/20 03:57:30;;;;;;;104.78;40.22;;;;;;;;;;6224898;23;20482;-95
2022/12/20 03:59:56;;;;;;;114.85;42.30;;;;;;;;;;6197200;23;20009;-94
2022/12/20 04:02:22;;;;;;;122.72;43.58;;;;;;;;;;6195992;23;20004;-95
2022/12/20 04:04:48;;;;;;;109.30;41.15;;;;;;;;;;6193965;23;20001;-94
2022/12/20 04:07:14;;;;;;;121.38;42.50;;;;;;;;;;6196399;23;20011;-93
2022/12/20 04:09:41;;;;;;;101.72;40.70;;;;;;;;;;6196634;23;20009;-92
2022/12/20 04:12:07;;;;;;;106.97;40.58;;;;;;;;;;6196914;23;20020;-94
2022/12/20 04:14:34;;;;;;;131.05;45.17;;;;;;;;;;6170623;23;20080;-93
2022/12/20 04:17:01;;;;;;;120.95;46.10;;;;;;;;;;6193546;23;20009;-94
2022/12/20 04:19:27;;;;;;;104.85;38.75;;;;;;;;;;6194843;23;20008;-94
2022/12/20 04:21:55;;;;;;;126.85;45.15;;;;;;;;;;6195007;23;20437;-94
2022/12/20 04:24:21;;;;;;;107.60;41.85;;;;;;;;;;6200301;23;20051;-93
2022/12/20 04:26:48;;;;;;;113.45;42.85;;;;;;;;;;6195793;23;20590;-94
2022/12/20 04:29:14;;;;;;;94.55;38.63;;;;;;;;;;6197641;23;20012;-94
2022/12/20 04:31:41;;;;;;;119.22;43.88;;;;;;;;;;6198425;23;20009;-95
2022/12/20 04:34:07;;;;;;;105.25;41.53;;;;;;;;;;6196892;23;20012;-92
2022/12/20 04:36:33;;;;;;;113.30;40.90;;;;;;;;;;6196041;23;20001;-94
2022/12/20 04:38:59;;;;;;;130.70;45.97;;;;;;;;;;6196880;23;20009;-93
2022/12/20 04:41:26;;;;;;;103.70;39.65;;;;;;;;;;6195718;23;20091;-93
2022/12/20 04:43:53;;;;;;;128.32;44.40;;;;;;;;;;6195414;23;20009;-93
2022/12/20 04:46:19;;;;;;;124.53;43.67;;;;;;;;;;6197338;23;20012;-94
2022/12/20 04:48:45;;;;;;;128.65;45.00;;;;;;;;;;6208125;23;20024;-91
2022/12/20 04:51:11;;;;;;;102.72;39.95;;;;;;;;;;6215552;22;19999;-91
2022/12/20 04:53:47;;;;;;;130.02;43.78;;;;;;;;;;6209891;23;20013;-91
2022/12/20 04:56:14;;;;;;;110.63;42.55;;;;;;;;;;6205544;23;19997;-92
2022/12/20 04:58:40;;;;;;;110.72;42.83;;;;;;;;;;6204534;23;20019;-92
2022/12/20 05:01:06;;;;;;;110.25;42.42;;;;;;;;;;6204257;23;20000;-93
2022/12/20 05:03:33;;;;;;;116.40;44.15;;;;;;;;;;6202878;23;20068;-92
2022/12/20 05:05:59;;;;;;;108.10;42.83;;;;;;;;;;6202867;23;20001;-93
2022/12/20 05:08:25;;;;;;;110.45;42.97;;;;;;;;;;6197791;23;20004;-91
2022/12/20 05:10:52;;;;;;;117.70;44.55;;;;;;;;;;6192883;23;20007;-93
2022/12/20 05:13:21;;;;;;;116.93;44.28;;;;;;;;;;6192382;23;20121;-94
2022/12/20 05:15:51;;;;;;;107.53;39.92;;;;;;;;;;6195578;23;20009;-94
2022/12/20 05:18:17;;;;;;;117.53;42.92;;;;;;;;;;6203057;23;20005;-94
2022/12/20 05:20:44;;;;;;;119.05;43.15;;;;;;;;;;6203692;23;20028;-93
2022/12/20 05:28:40;;;;;;;108.30;43.08;;;;;;;;;;6227690;23;20074;-94
2022/12/20 05:31:06;;;;;;;96.90;39.80;;;;;;;;;;6192181;23;20012;-93
2022/12/20 05:33:32;;;;;;;121.78;46.03;;;;;;;;;;6192602;23;20012;-92
2022/12/20 05:35:59;;;;;;;92.15;38.67;;;;;;;;;;6192534;23;20005;-94
2022/12/20 05:38:25;;;;;;;94.93;39.92;;;;;;;;;;6204311;23;20012;-92
2022/12/20 05:40:52;;;;;;;93.30;41.88;;;;;;;;;;6196292;23;20008;-94
2022/12/20 05:43:18;;;;;;;104.55;41.88;;;;;;;;;;6198741;23;20430;-93
2022/12/20 05:46:01;;;;;;;118.07;46.75;;;;;;;;;;6202612;23;20040;-94
2022/12/20 05:48:27;;;;;;;102.25;41.75;;;;;;;;;;6200804;23;20001;-93
2022/12/20 05:50:53;;;;;;;112.07;44.20;;;;;;;;;;6205053;23;20034;-93
2022/12/20 05:59:56;;;;;;;98.57;38.55;;;;;;;;;;6222302;23;20016;-93
2022/12/20 06:02:24;;;;;;;95.68;37.88;;;;;;;;;;6194687;23;20012;-93
2022/12/20 06:04:51;;;;;;;98.68;38.75;;;;;;;;;;6195685;23;20015;-94
2022/12/20 06:07:18;;;;;;;91.60;37.45;;;;;;;;;;6196443;23;20005;-95
2022/12/20 06:09:44;;;;;;;105.53;41.28;;;;;;;;;;6197338;23;20004;-95
2022/12/20 06:12:15;;;;;;;92.00;37.60;;;;;;;;;;6196913;23;20008;-94
2022/12/20 06:14:43;;;;;;;92.25;37.33;;;;;;;;;;6194070;23;20023;-94
2022/12/20 06:17:10;;;;;;;93.82;36.78;;;;;;;;;;6222319;23;20460;-95
2022/12/20 06:19:40;;;;;;;106.85;41.47;;;;;;;;;;6199561;23;20070;-95
2022/12/20 06:22:07;;;;;;;95.05;38.70;;;;;;;;;;6201923;23;20342;-94
2022/12/20 06:24:34;;;;;;;90.65;37.33;;;;;;;;;;6203232;23;20082;-95
2022/12/20 06:27:13;;;;;;;;;;;;;;;;;;;;;
2022/12/20 06:29:50;;;;;;;95.90;39.22;;;;;;;;;;6221151;23;20043;-95
2022/12/20 06:37:41;;;;;;;92.90;39.13;;;;;;;;;;6252712;22;20020;-94
2022/12/20 06:40:34;;;;;;;93.35;38.28;;;;;;;;;;6237552;23;20001;-95
2022/12/20 06:43:04;;;;;;;92.65;38.72;;;;;;;;;;6248821;23;20007;-93
2022/12/20 06:51:01;;;;;;;90.00;38.03;;;;;;;;;;6286987;22;20028;-94
2022/12/20 06:53:42;;;;;;;;;;;;;;;;;;;;;
2022/12/20 06:56:09;;;;;;;90.45;38.53;;;;;;;;;;6284738;22;20031;-93
2022/12/20 06:58:38;;;;;;;96.68;39.40;;;;;;;;;;6261571;22;20019;-93
2022/12/20 07:01:11;;;;;;;88.93;36.05;;;;;;;;;;6263526;22;20023;-93
2022/12/20 07:03:38;;;;;;;88.45;36.92;;;;;;;;;;6290313;22;20027;-93
2022/12/20 07:06:12;;;;;;;102.82;39.35;;;;;;;;;;6271026;22;20011;-93
2022/12/20 07:08:39;;;;;;;88.25;37.28;;;;;;;;;;6266625;22;20494;-94
2022/12/20 07:11:08;;;;;;;86.05;35.88;;;;;;;;;;6268540;22;20421;-95
2022/12/20 07:13:39;;;;;;;96.20;38.85;;;;;;;;;;6295558;22;20011;-94
2022/12/20 07:16:05;;;;;;;88.88;36.47;;;;;;;;;;6258984;22;20000;-92
2022/12/20 07:18:32;;;;;;;94.93;38.17;;;;;;;;;;6259063;22;20004;-93
2022/12/20 07:21:02;;;;;;;83.60;36.05;;;;;;;;;;6259071;22;20420;-93
2022/12/20 07:23:28;;;;;;;94.32;38.45;;;;;;;;;;6266444;22;19988;-91
2022/12/20 07:25:55;;;;;;;88.55;37.03;;;;;;;;;;6277715;22;19987;-91
2022/12/20 07:28:22;;;;;;;80.55;35.67;;;;;;;;;;6260903;22;20027;-93
2022/12/20 07:31:00;;;;;;;81.57;33.95;;;;;;;;;;6259638;22;20034;-94
2022/12/20 07:33:49;;;;;;;83.50;36.95;;;;;;;;;;6260525;22;20008;-95
2022/12/20 07:36:22;;;;;;;77.63;33.72;;;;;;;;;;6254010;22;20006;-90
2022/12/20 07:39:26;;;;;;;87.38;36.25;;;;;;;;;;6254854;22;20008;-92
2022/12/20 07:41:57;;;;;;;83.10;35.90;;;;;;;;;;6258918;22;20019;-92
2022/12/20 07:47:16;;;;;;;78.57;34.40;;;;;;;;;;6254695;22;20034;-94
2022/12/20 07:49:45;;;;;;;78.88;34.95;;;;;;;;;;6240128;22;20023;-94
2022/12/20 07:52:13;;;;;;;81.85;36.08;;;;;;;;;;6264899;22;20031;-96
2022/12/20 07:54:44;;;;;;;72.35;32.60;;;;;;;;;;6284971;22;20090;-93
2022/12/20 07:57:13;;;;;;;79.30;35.78;;;;;;;;;;6268630;22;20052;-93
2022/12/20 08:00:00;;;;;;;96.95;38.50;;;;;;;;;;6266894;22;20004;-94
2022/12/20 08:02:34;;;;;;;81.85;34.38;;;;;;;;;;6288926;22;20015;-95
2022/12/20 08:05:01;;;;;;;92.35;37.72;;;;;;;;;;6265602;22;20007;-95
2022/12/20 08:07:29;;;;;;;79.47;34.63;;;;;;;;;;6264046;22;20010;-95
2022/12/20 08:09:57;;;;;;;90.40;37.47;;;;;;;;;;6265744;22;20073;-93
2022/12/20 08:12:24;;;;;;;85.55;37.20;;;;;;;;;;6288863;22;20075;-93
2022/12/20 08:14:54;;;;;;;82.38;35.38;;;;;;;;;;6261231;22;20008;-94
2022/12/20 08:17:21;;;;;;;80.22;36.38;;;;;;;;;;6271993;22;19992;-94
2022/12/20 08:19:52;;;;;;;75.55;33.50;;;;;;;;;;6272145;22;20321;-93
2022/12/20 08:22:22;;;;;;;84.20;35.92;;;;;;;;;;6293371;22;20014;-94
2022/12/20 08:24:49;;;;;;;88.07;35.88;;;;;;;;;;6261304;22;20003;-93
2022/12/20 08:27:35;;;;;;;76.75;35.70;;;;;;;;;;6269690;22;20059;-94
2022/12/20 08:30:01;;;;;;;84.03;35.35;;;;;;;;;;6269730;22;20030;-92
2022/12/20 08:35:32;;;;;;;71.70;30.73;;;;;;;;;;6293858;22;20484;-94
2022/12/20 08:41:03;;;;;;;80.38;31.92;;;;;;;;;;6288263;22;20015;-92
2022/12/20 08:43:30;;;;;;;84.18;34.67;;;;;;;;;;6252625;22;20774;-92
2022/12/20 08:45:56;;;;;;;86.97;35.42;;;;;;;;;;6258371;22;20063;-93
2022/12/20 08:48:22;;;;;;;82.28;34.72;;;;;;;;;;6253995;22;20010;-94
2022/12/20 08:54:13;;;;;;;72.60;32.03;;;;;;;;;;6191227;22;20017;-94
2022/12/20 08:56:39;;;;;;;90.88;37.85;;;;;;;;;;6253657;22;20082;-93
2022/12/20 08:59:08;;;;;;;84.68;36.08;;;;;;;;;;6253838;22;20003;-93
2022/12/20 09:01:34;;;;;;;83.28;35.22;;;;;;;;;;6252454;22;20015;-93
2022/12/20 09:04:00;;;;;;;69.63;32.15;;;;;;;;;;6252529;22;20031;-94
2022/12/20 09:06:32;;;;;;;79.38;33.58;;;;;;;;;;6256112;22;19999;-95
2022/12/20 09:09:15;;;;;;;79.38;33.33;;;;;;;;;;6255878;22;20353;-93
2022/12/20 09:11:41;;;;;;;78.30;34.05;;;;;;;;;;6251897;22;20000;-91
2022/12/20 09:14:27;;;;;;;75.82;33.15;;;;;;;;;;6256691;22;20011;-95
2022/12/20 09:16:53;;;;;;;82.88;34.70;;;;;;;;;;6253567;22;20014;-94
2022/12/20 09:19:19;;;;;;;77.75;33.35;;;;;;;;;;6256178;22;20065;-92
2022/12/20 09:21:45;;;;;;;78.93;33.80;;;;;;;;;;6255162;22;20646;-92
2022/12/20 09:24:12;;;;;;;71.30;32.88;;;;;;;;;;6257586;22;20714;-93
2022/12/20 09:26:39;;;;;;;72.72;32.13;;;;;;;;;;6255539;22;20034;-94
2022/12/20 09:29:07;;;;;;;78.40;33.35;;;;;;;;;;6270395;22;19995;-92
2022/12/20 09:31:33;;;;;;;81.63;35.70;;;;;;;;;;6269257;22;20006;-92
2022/12/20 09:33:59;;;;;;;78.32;33.97;;;;;;;;;;6255946;22;20015;-93
2022/12/20 09:36:26;;;;;;;88.70;35.58;;;;;;;;;;6252764;22;20006;-93
2022/12/20 09:38:53;;;;;;;74.32;32.53;;;;;;;;;;6258765;22;20023;-91
2022/12/20 09:41:32;;;;;;;75.63;31.75;;;;;;;;;;6254551;22;20007;-93
2022/12/20 09:44:00;;;;;;;80.93;33.22;;;;;;;;;;6257085;22;20011;-93
2022/12/20 09:46:27;;;;;;;75.53;32.72;;;;;;;;;;6253458;22;20082;-93
2022/12/20 09:49:11;;;;;;;81.88;35.50;;;;;;;;;;6257930;22;20004;-95
2022/12/20 09:51:57;;;;;;;73.80;33.03;;;;;;;;;;6286086;22;20057;-89
2022/12/20 09:54:26;;;;;;;85.65;34.65;;;;;;;;;;6269323;22;20016;-92
2022/12/20 09:56:59;;;;;;;74.13;32.47;;;;;;;;;;6255062;22;20004;-94
2022/12/20 09:59:26;;;;;;;78.22;34.42;;;;;;;;;;6256403;22;20004;-93
2022/12/20 10:01:52;;;;;;;70.63;32.25;;;;;;;;;;6248450;22;19999;-93
2022/12/20 10:04:20;;;;;;;71.22;33.13;;;;;;;;;;6275794;22;20011;-94
2022/12/20 10:07:05;;;;;;;80.28;34.78;;;;;;;;;;6273000;22;20075;-95
2022/12/20 10:09:50;;;;;;;81.07;32.78;;;;;;;;;;6257992;22;20004;-92
2022/12/20 10:12:36;;;;;;;81.70;36.05;;;;;;;;;;6293281;22;20065;-94
2022/12/20 10:15:03;;;;;;;74.55;32.97;;;;;;;;;;6260985;22;20042;-94
2022/12/20 10:17:40;;;;;;;70.97;33.03;;;;;;;;;;6259815;22;20004;-94
2022/12/20 10:20:25;;;;;;;73.10;31.02;;;;;;;;;;6263387;22;20018;-92
2022/12/20 10:22:51;;;;;;;78.75;32.35;;;;;;;;;;6263420;22;20010;-92
2022/12/20 10:25:19;;;;;;;72.10;31.80;;;;;;;;;;6262905;22;20004;-95
2022/12/20 10:27:47;;;;;;;76.07;32.15;;;;;;;;;;6266875;22;20302;-95
2022/12/20 10:30:15;;;;;;;78.10;31.67;;;;;;;;;;6288915;22;20018;-91
2022/12/20 10:32:46;;;;;;;68.50;29.83;;;;;;;;;;6258881;22;20006;-93
2022/12/20 10:35:23;;;;;;;78.53;34.08;;;;;;;;;;6265447;22;20037;-94
2022/12/20 10:38:06;;;;;;;71.25;33.30;;;;;;;;;;6265986;22;20034;-92
2022/12/20 10:40:32;;;;;;;71.20;31.27;;;;;;;;;;6262668;22;20004;-96
2022/12/20 10:42:59;;;;;;;72.07;30.77;;;;;;;;;;6258654;22;20132;-94
2022/12/20 10:45:30;;;;;;;72.97;31.55;;;;;;;;;;6263684;22;19999;-96
2022/12/20 10:47:59;;;;;;;67.45;30.52;;;;;;;;;;6263520;22;20006;-92
2022/12/20 10:50:35;;;;;;;65.70;30.27;;;;;;;;;;6250133;22;20015;-91
2022/12/20 10:53:34;;;;;;;;;;;;;;;;;;;;;
2022/12/20 10:56:27;;;;;;;71.20;32.22;;;;;;;;;;6285796;22;20016;-92
2022/12/20 10:58:54;;;;;;;71.03;31.33;;;;;;;;;;6261495;22;20004;-93
2022/12/20 11:01:21;;;;;;;60.55;29.92;;;;;;;;;;6255902;22;20110;-90
2022/12/20 11:04:18;;;;;;;72.13;32.22;;;;;;;;;;6284364;22;20018;-95
2022/12/20 11:06:45;;;;;;;69.45;33.03;;;;;;;;;;6261602;22;20006;-95
2022/12/20 11:09:31;;;;;;;65.85;30.83;;;;;;;;;;6272803;22;20000;-94
2022/12/20 11:12:06;;;;;;;64.85;30.50;;;;;;;;;;6293550;22;20004;-91
2022/12/20 11:14:36;;;;;;;65.95;30.48;;;;;;;;;;6265965;22;20095;-94
2022/12/20 11:17:28;;;;;;;74.05;33.47;;;;;;;;;;6288389;22;20023;-95
2022/12/20 11:20:14;;;;;;;69.63;31.73;;;;;;;;;;6297805;22;19999;-95
2022/12/20 11:25:44;;;;;;;65.30;29.77;;;;;;;;;;6295884;22;20014;-93
2022/12/20 11:31:27;;;;;;;64.47;28.73;;;;;;;;;;6289913;22;20046;-95
2022/12/20 11:34:03;;;;;;;70.63;30.80;;;;;;;;;;6235462;23;20047;-94
2022/12/20 11:36:59;;;;;;;66.85;31.58;;;;;;;;;;6241695;22;19988;-94
2022/12/20 11:39:54;;;;;;;64.53;30.75;;;;;;;;;;6228843;22;20000;-93
2022/12/20 11:42:23;;;;;;;72.10;30.80;;;;;;;;;;6242144;23;20027;-95
2022/12/20 11:44:57;;;;;;;72.72;31.63;;;;;;;;;;6232514;23;20055;-95
2022/12/20 11:47:29;;;;;;;69.50;30.63;;;;;;;;;;6233656;23;20005;-92
2022/12/20 11:50:07;;;;;;;64.10;30.15;;;;;;;;;;6245799;23;20098;-92
2022/12/20 11:52:34;;;;;;;71.53;32.63;;;;;;;;;;6239076;23;20031;-94
2022/12/20 11:55:19;;;;;;;75.13;32.78;;;;;;;;;;6226224;23;20019;-94
2022/12/20 11:57:59;;;;;;;72.05;33.17;;;;;;;;;;6227160;23;20032;-94
2022/12/20 12:00:25;;;;;;;69.30;30.88;;;;;;;;;;6225820;23;20468;-94
2022/12/20 12:02:54;;;;;;;65.40;30.05;;;;;;;;;;6228937;23;20012;-93
2022/12/20 12:05:33;;;;;;;74.50;33.60;;;;;;;;;;6229395;23;20376;-94
2022/12/20 12:08:04;;;;;;;75.28;31.73;;;;;;;;;;6222934;23;20008;-90
2022/12/20 12:10:34;;;;;;;76.07;33.83;;;;;;;;;;6223817;23;20004;-92
2022/12/20 12:13:07;;;;;;;76.50;33.20;;;;;;;;;;6226585;23;20007;-94
2022/12/20 12:15:40;;;;;;;64.38;30.52;;;;;;;;;;6223199;23;20322;-91
2022/12/20 12:18:16;;;;;;;69.65;30.35;;;;;;;;;;6226579;23;20448;-93
2022/12/20 12:21:07;;;;;;;67.38;31.02;;;;;;;;;;6221811;23;20015;-92
2022/12/20 12:23:48;;;;;;;65.18;29.13;;;;;;;;;;6222321;23;20445;-93
2022/12/20 12:26:25;;;;;;;68.68;30.95;;;;;;;;;;6222693;23;20005;-89
2022/12/20 12:28:59;;;;;;;65.53;29.45;;;;;;;;;;6223834;23;20023;-91
2022/12/20 12:31:52;;;;;;;61.38;29.58;;;;;;;;;;6223241;23;20004;-95
2022/12/20 12:34:27;;;;;;;61.45;30.40;;;;;;;;;;6226467;23;20027;-94
2022/12/20 12:36:56;;;;;;;70.03;31.27;;;;;;;;;;6224197;23;20074;-93
2022/12/20 12:39:29;;;;;;;66.55;30.98;;;;;;;;;;6223242;23;20004;-93
2022/12/20 12:42:12;;;;;;;67.10;30.83;;;;;;;;;;6219904;23;20011;-92
2022/12/20 12:44:39;;;;;;;68.82;31.27;;;;;;;;;;6222764;23;20075;-93
2022/12/20 12:47:08;;;;;;;67.60;30.55;;;;;;;;;;6225885;23;20027;-94
2022/12/20 12:49:37;;;;;;;67.35;31.20;;;;;;;;;;6225848;23;20004;-96
2022/12/20 12:52:04;;;;;;;60.15;29.42;;;;;;;;;;6247349;23;20063;-91
2022/12/20 12:54:30;;;;;;;65.28;30.52;;;;;;;;;;6224307;23;20012;-91
2022/12/20 12:57:08;;;;;;;69.15;31.42;;;;;;;;;;6219686;23;20291;-92
2022/12/20 12:59:35;;;;;;;65.25;29.88;;;;;;;;;;6219659;23;20051;-91
2022/12/20 13:02:04;;;;;;;72.13;31.60;;;;;;;;;;6220863;23;20011;-94
2022/12/20 13:04:50;;;;;;;62.92;30.25;;;;;;;;;;6223208;23;20079;-93
2022/12/20 13:07:42;;;;;;;66.10;30.85;;;;;;;;;;6226042;23;20369;-93
2022/12/20 13:20:43;;;;;;;70.57;31.58;;;;;;;;;;6281163;22;20024;-95
2022/12/20 13:23:10;;;;;;;67.80;31.40;;;;;;;;;;6261473;22;20011;-94
2022/12/20 13:26:17;;;;;;;65.25;31.15;;;;;;;;;;6264256;22;20000;-93
2022/12/20 13:28:50;;;;;;;64.78;29.95;;;;;;;;;;6268210;22;20003;-94
2022/12/20 13:31:19;;;;;;;65.82;30.77;;;;;;;;;;6232267;22;19999;-89
2022/12/20 13:33:53;;;;;;;65.90;31.05;;;;;;;;;;6267431;22;20011;-95
2022/12/20 14:00:02;;;;;;;64.75;30.38;;;;;;;;;;6296562;22;20055;-95
2022/12/20 14:02:47;;;;;;;67.00;29.90;;;;;;;;;;6269716;22;20014;-94
2022/12/20 14:51:48;;;;;;;62.40;29.73;;;;;;;;;;6208348;22;20103;-91
2022/12/20 14:54:36;;;;;;;;;;;;;;;;;;;;;
2022/12/20 15:08:50;;;;;;;69.38;32.92;;;;;;;;;;6278315;22;20020;-91
2022/12/20 15:11:22;;;;;;;67.30;34.25;;;;;;;;;;6253648;22;20031;-91
2022/12/20 15:13:51;;;;;;;58.90;30.27;;;;;;;;;;6254775;22;20008;-91
2022/12/20 15:16:39;;;;;;;75.60;37.55;;;;;;;;;;6253483;22;20026;-94
2022/12/20 15:19:08;;;;;;;70.75;33.20;;;;;;;;;;6256844;22;20043;-91
2022/12/20 15:21:41;;;;;;;67.63;34.30;;;;;;;;;;6254562;22;20023;-91
2022/12/20 15:24:26;;;;;;;68.20;33.40;;;;;;;;;;6268019;22;20015;-89
2022/12/20 15:26:54;;;;;;;72.40;34.05;;;;;;;;;;6252851;22;20014;-90
2022/12/20 15:29:20;;;;;;;58.67;30.83;;;;;;;;;;6254101;22;20007;-91
2022/12/20 15:31:56;;;;;;;74.75;36.50;;;;;;;;;;6254418;22;20110;-94
2022/12/20 15:34:48;;;;;;;69.97;34.08;;;;;;;;;;6254523;22;20341;-95
2022/12/20 15:37:15;;;;;;;69.40;34.83;;;;;;;;;;6219990;22;20089;-92
2022/12/20 15:39:41;;;;;;;82.93;38.08;;;;;;;;;;6253762;22;20096;-91
2022/12/20 15:42:13;;;;;;;84.05;37.63;;;;;;;;;;6259960;22;20015;-89
2022/12/20 15:44:39;;;;;;;84.78;36.25;;;;;;;;;;6256638;22;20008;-92
2022/12/20 15:47:07;;;;;;;99.55;42.45;;;;;;;;;;6254133;22;20000;-91
2022/12/20 15:49:33;;;;;;;87.30;38.63;;;;;;;;;;6252171;22;20004;-92
2022/12/20 15:51:59;;;;;;;80.30;38.00;;;;;;;;;;6255084;22;20007;-91
2022/12/20 15:54:27;;;;;;;79.90;37.63;;;;;;;;;;6269948;22;20064;-92
2022/12/20 15:56:53;;;;;;;86.35;38.97;;;;;;;;;;6273281;22;20038;-92
2022/12/20 15:59:21;;;;;;;83.00;39.53;;;;;;;;;;6256545;22;20003;-92
2022/12/20 16:01:50;;;;;;;93.35;39.63;;;;;;;;;;6251949;22;20002;-92
2022/12/20 16:04:18;;;;;;;75.60;35.33;;;;;;;;;;6252481;22;20008;-93
2022/12/20 17:16:11;;;;;;;75.60;33.47;;;;;;;;;;6259374;22;20026;-95
2022/12/20 17:18:43;;;;;;;70.93;33.85;;;;;;;;;;6232392;23;20492;-93
2022/12/20 17:21:16;;;;;;;78.00;34.63;;;;;;;;;;6223791;23;20019;-92
2022/12/20 17:23:42;;;;;;;74.50;34.22;;;;;;;;;;6222999;23;20028;-92
2022/12/20 17:26:13;;;;;;;79.95;37.30;;;;;;;;;;6226872;23;20004;-93
2022/12/20 17:28:54;;;;;;;;;;;;;;;;;;;;;
2022/12/20 17:31:30;;;;;;;68.32;34.28;;;;;;;;;;6262607;23;20015;-94
2022/12/20 17:36:49;;;;;;;78.10;38.83;;;;;;;;;;6239076;23;20046;-94
2022/12/20 17:39:15;;;;;;;;;;;;;;;;;;6204137;23;20520;-91
2022/12/20 17:41:42;;;;;;;81.90;37.67;;;;;;;;;;6196313;23;19896;-93
2022/12/20 17:44:16;;;;;;;73.25;35.42;;;;;;;;;;6178494;23;20035;-93
2022/12/20 17:46:42;;;;;;;76.60;36.53;;;;;;;;;;6198728;23;20011;-92
2022/12/20 17:49:11;;;;;;;79.60;35.28;;;;;;;;;;6201089;23;20009;-93
2022/12/20 17:51:37;;;;;;;106.38;44.55;;;;;;;;;;6194259;23;20096;-93
2022/12/20 17:54:04;;;;;;;71.90;35.85;;;;;;;;;;6192942;23;20008;-93
2022/12/20 17:56:31;;;;;;;73.68;35.42;;;;;;;;;;6197983;23;19997;-93
2022/12/20 17:58:58;;;;;;;68.78;33.53;;;;;;;;;;6194837;23;20004;-94
2022/12/20 18:01:25;;;;;;;69.47;34.95;;;;;;;;;;6208565;22;20023;-93
2022/12/20 18:03:52;;;;;;;71.03;34.88;;;;;;;;;;6215930;23;20048;-94
2022/12/20 18:06:19;;;;;;;79.03;36.92;;;;;;;;;;6207165;23;20017;-94
2022/12/20 18:08:49;;;;;;;72.22;36.20;;;;;;;;;;6196859;23;20007;-94
2022/12/20 18:11:16;;;;;;;79.18;37.65;;;;;;;;;;6192780;23;20070;-93
2022/12/20 18:13:43;;;;;;;79.35;37.80;;;;;;;;;;6191688;23;20016;-93
2022/12/20 18:16:10;;;;;;;78.68;38.30;;;;;;;;;;6191555;23;20018;-94
2022/12/20 18:18:37;;;;;;;83.78;39.63;;;;;;;;;;6196062;23;20005;-92
2022/12/20 18:21:08;;;;;;;73.68;36.65;;;;;;;;;;6230759;23;20005;-90
2022/12/20 18:23:36;;;;;;;77.28;37.42;;;;;;;;;;6207229;23;20008;-93
2022/12/20 18:26:13;;;;;;;84.95;37.47;;;;;;;;;;6204914;23;20004;-94
2022/12/20 18:28:40;;;;;;;75.20;36.58;;;;;;;;;;6204181;23;20017;-93
2022/12/20 18:31:07;;;;;;;86.80;38.47;;;;;;;;;;6231099;23;20434;-92
2022/12/20 18:33:40;;;;;;;71.68;35.40;;;;;;;;;;6209776;23;20016;-91
2022/12/20 18:36:08;;;;;;;71.40;35.40;;;;;;;;;;6229444;23;20000;-94